createdAt,value
2023-01-27T00:01:07.049Z,101724.97
2023-01-27T00:03:34.551Z,101720.66
2023-01-27T00:06:06.310Z,101718.84
2023-01-27T00:08:36.565Z,101714.56
2023-01-27T00:11:21.989Z,101715.47
2023-01-27T00:13:48.796Z,101721.56
2023-01-27T00:16:15.622Z,101714.56
2023-01-27T00:18:42.463Z,101714.56
2023-01-27T00:21:27.764Z,101709.31
2023-01-27T00:24:13.129Z,101710.22
2023-01-27T00:26:40.066Z,101713.69
2023-01-27T00:29:06.857Z,101711.13
2023-01-27T00:31:52.044Z,101718.13
2023-01-27T00:34:19.034Z,101700.63
2023-01-27T00:36:45.827Z,101710.31
2023-01-27T00:39:13.292Z,101713.91
2023-01-27T00:41:40.766Z,101718.31
2023-01-27T00:44:12.675Z,101715.75
2023-01-27T00:46:39.516Z,101709.66
2023-01-27T00:49:10.471Z,101707.94
2023-01-27T00:51:37.547Z,101721.97
2023-01-27T00:54:05.142Z,101713.22
2023-01-27T00:56:32.193Z,101724.59
2023-01-27T00:58:59.515Z,101731.63
2023-01-27T01:01:27.143Z,101733.41
2023-01-27T01:03:53.964Z,101738.72
2023-01-27T01:06:21.123Z,101733.47
2023-01-27T01:08:48.759Z,101733.53
2023-01-27T01:11:17.056Z,101740.63
2023-01-27T01:13:45.343Z,101737.94
2023-01-27T01:16:19.300Z,101740.56
2023-01-27T01:18:46.602Z,101744.09
2023-01-27T01:21:13.511Z,101747.63
2023-01-27T01:23:43.192Z,101750.25
2023-01-27T01:26:12.469Z,101755.56
2023-01-27T01:28:39.545Z,101760.84
2023-01-27T01:31:14.047Z,101767.16
2023-01-27T01:33:41.306Z,101769.72
2023-01-27T01:36:12.473Z,101763.66
2023-01-27T01:38:39.439Z,101765.44
2023-01-27T01:41:10.366Z,101762.91
2023-01-27T01:43:37.119Z,101760.28
2023-01-27T01:46:04.846Z,101766.47
2023-01-27T01:48:36.736Z,101763.06
2023-01-27T01:51:27.275Z,101759.53
2023-01-27T01:54:03.956Z,101769.22
2023-01-27T01:56:37.470Z,101759.53
2023-01-27T01:59:20.612Z,101763.00
2023-01-27T02:01:47.983Z,101766.47
2023-01-27T02:04:21.191Z,101766.53
2023-01-27T02:07:18.097Z,101763.00
2023-01-27T02:09:44.873Z,101755.00
2023-01-27T02:12:11.765Z,101761.19
2023-01-27T02:14:40.352Z,101767.31
2023-01-27T02:17:09.340Z,101760.31
2023-01-27T02:20:32.707Z,101767.31
2023-01-27T02:23:11.255Z,101766.34
2023-01-27T02:26:07.360Z,101760.28
2023-01-27T02:28:34.309Z,101765.56
2023-01-27T02:31:01.575Z,101763.00
2023-01-27T02:33:28.684Z,101759.53
2023-01-27T02:36:09.742Z,101755.19
2023-01-27T02:38:41.891Z,101764.91
2023-01-27T02:41:41.298Z,101761.44
2023-01-27T02:44:09.858Z,101761.50
2023-01-27T02:46:37.496Z,101765.03
2023-01-27T02:49:05.017Z,101764.22
2023-01-27T02:51:32.249Z,101773.94
2023-01-27T02:53:59.082Z,101768.75
2023-01-27T02:56:26.139Z,101779.34
2023-01-27T02:58:52.982Z,101778.50
2023-01-27T03:01:19.803Z,101784.69
2023-01-27T03:03:53.751Z,101782.16
2023-01-27T03:06:20.576Z,101784.81
2023-01-27T03:08:47.644Z,101788.31
2023-01-27T03:11:14.531Z,101782.19
2023-01-27T03:13:41.422Z,101788.41
2023-01-27T03:16:27.487Z,101790.19
2023-01-27T03:18:56.370Z,101794.66
2023-01-27T03:21:23.207Z,101798.13
2023-01-27T03:23:53.919Z,101798.13
2023-01-27T03:26:21.082Z,101798.25
2023-01-27T03:29:07.889Z,101795.66
2023-01-27T03:31:34.775Z,101795.66
2023-01-27T03:34:01.619Z,101799.25
2023-01-27T03:36:46.791Z,101801.94
2023-01-27T03:39:32.022Z,101786.94
2023-01-27T03:42:17.131Z,101795.72
2023-01-27T03:45:02.241Z,101794.81
2023-01-27T03:47:29.010Z,101794.88
2023-01-27T03:49:57.216Z,101789.56
2023-01-27T03:52:26.768Z,101792.28
2023-01-27T03:54:53.536Z,101801.97
2023-01-27T03:57:20.575Z,101801.16
2023-01-27T03:59:47.324Z,101795.06
2023-01-27T04:02:32.483Z,101798.63
2023-01-27T04:05:17.683Z,101798.59
2023-01-27T04:07:44.464Z,101798.63
2023-01-27T04:10:11.437Z,101797.78
2023-01-27T04:12:38.187Z,101799.59
2023-01-27T04:15:05.783Z,101800.50
2023-01-27T04:17:38.943Z,101811.09
2023-01-27T04:20:06.497Z,101804.03
2023-01-27T04:22:33.312Z,101810.19
2023-01-27T04:25:00.146Z,101813.72
2023-01-27T04:27:27.201Z,101815.53
2023-01-27T04:29:53.977Z,101813.78
2023-01-27T04:32:20.801Z,101820.81
2023-01-27T04:34:47.553Z,101826.97
2023-01-27T04:37:14.324Z,101826.16
2023-01-27T04:39:41.807Z,101828.84
2023-01-27T04:42:08.608Z,101838.53
2023-01-27T04:44:35.390Z,101834.13
2023-01-27T04:47:02.193Z,101828.88
2023-01-27T04:49:28.974Z,101831.56
2023-01-27T04:51:55.933Z,101839.53
2023-01-27T04:54:22.712Z,101838.69
2023-01-27T04:56:59.489Z,101839.56
2023-01-27T04:59:26.792Z,101838.69
2023-01-27T05:01:53.681Z,101840.47
2023-01-27T05:04:20.631Z,101844.88
2023-01-27T05:06:47.425Z,101847.59
2023-01-27T05:09:14.221Z,101845.88
2023-01-27T05:11:41.043Z,101848.50
2023-01-27T05:14:07.817Z,101858.22
2023-01-27T05:16:34.651Z,101852.94
2023-01-27T05:19:02.159Z,101861.81
2023-01-27T05:21:30.727Z,101867.06
2023-01-27T05:23:57.707Z,101865.38
2023-01-27T05:26:27.653Z,101865.38
2023-01-27T05:28:58.041Z,101869.78
2023-01-27T05:31:28.387Z,101868.97
2023-01-27T05:33:57.845Z,101874.22
2023-01-27T05:36:26.045Z,101876.03
2023-01-27T05:38:54.641Z,101875.16
2023-01-27T05:41:22.245Z,101874.31
2023-01-27T05:43:54.185Z,101882.28
2023-01-27T05:46:30.951Z,101878.78
2023-01-27T05:49:06.351Z,101879.69
2023-01-27T05:51:36.864Z,101885.84
2023-01-27T05:54:04.132Z,101888.53
2023-01-27T05:56:30.975Z,101890.34
2023-01-27T05:58:58.896Z,101892.09
2023-01-27T06:01:31.899Z,101896.59
2023-01-27T06:03:59.019Z,101900.13
2023-01-27T06:06:28.013Z,101907.13
2023-01-27T06:08:55.148Z,101905.41
2023-01-27T06:11:24.065Z,101908.94
2023-01-27T06:13:52.820Z,101901.94
2023-01-27T06:16:21.507Z,101906.31
2023-01-27T06:18:49.168Z,101912.50
2023-01-27T06:21:17.629Z,101908.13
2023-01-27T06:23:44.569Z,101916.97
2023-01-27T06:26:16.376Z,101911.72
2023-01-27T06:28:43.894Z,101918.75
2023-01-27T06:31:21.609Z,101917.81
2023-01-27T06:33:49.312Z,101913.38
2023-01-27T06:36:22.239Z,101912.50
2023-01-27T06:38:50.627Z,101920.44
2023-01-27T06:41:17.773Z,101917.75
2023-01-27T06:43:44.560Z,101918.66
2023-01-27T06:46:11.408Z,101920.44
2023-01-27T06:48:38.312Z,101920.44
2023-01-27T06:51:05.944Z,101922.25
2023-01-27T06:53:33.110Z,101927.50
2023-01-27T06:56:01.446Z,101925.72
2023-01-27T06:58:29.232Z,101931.88
2023-01-27T07:00:57.429Z,101936.25
2023-01-27T07:03:24.668Z,101934.53
2023-01-27T07:05:52.773Z,101936.31
2023-01-27T07:08:19.618Z,101939.81
2023-01-27T07:10:46.523Z,101945.97
2023-01-27T07:13:14.845Z,101946.88
2023-01-27T07:15:42.152Z,101948.66
2023-01-27T07:18:11.956Z,101949.50
2023-01-27T07:20:38.762Z,101959.19
2023-01-27T07:23:06.171Z,101956.56
2023-01-27T07:25:34.678Z,101959.19
2023-01-27T07:28:02.761Z,101968.88
2023-01-27T07:30:29.997Z,101975.88
2023-01-27T07:33:03.249Z,101975.94
2023-01-27T07:35:30.047Z,101982.94
2023-01-27T07:37:58.268Z,101987.31
2023-01-27T07:40:25.144Z,101984.69
2023-01-27T07:42:51.895Z,101982.03
2023-01-27T07:45:18.697Z,101992.56
2023-01-27T07:47:45.483Z,101995.25
2023-01-27T07:50:12.760Z,101998.78
2023-01-27T07:52:39.709Z,101989.22
2023-01-27T07:55:08.012Z,101993.63
2023-01-27T07:57:34.823Z,102012.09
2023-01-27T08:00:01.628Z,102003.31
2023-01-27T08:02:28.466Z,102017.44
2023-01-27T08:04:55.350Z,102018.34
2023-01-27T08:07:22.880Z,102022.69
2023-01-27T08:09:49.681Z,102021.78
2023-01-27T08:12:16.542Z,102027.06
2023-01-27T08:14:43.331Z,102029.69
2023-01-27T08:17:10.156Z,102033.28
2023-01-27T08:19:36.983Z,102028.84
2023-01-27T08:22:03.948Z,102026.25
2023-01-27T08:24:30.725Z,102036.69
2023-01-27T08:26:57.518Z,102039.31
2023-01-27T08:29:24.768Z,102043.75
2023-01-27T08:31:51.587Z,102042.91
2023-01-27T08:34:18.470Z,102052.59
2023-01-27T08:36:45.284Z,102054.34
2023-01-27T08:39:12.212Z,102049.91
2023-01-27T08:41:39.345Z,102054.34
2023-01-27T08:44:06.929Z,102056.09
2023-01-27T08:46:34.101Z,102054.34
2023-01-27T08:49:01.067Z,102059.66
2023-01-27T08:51:28.653Z,102056.09
2023-01-27T08:53:55.693Z,102061.44
2023-01-27T08:56:22.597Z,102057.03
2023-01-27T08:58:52.078Z,102065.88
2023-01-27T09:01:20.658Z,102066.72
2023-01-27T09:03:47.526Z,102065.06
2023-01-27T09:06:15.238Z,102075.69
2023-01-27T09:08:43.188Z,102077.50
2023-01-27T09:11:16.102Z,102074.88
2023-01-27T09:13:43.738Z,102077.59
2023-01-27T09:16:10.592Z,102084.66
2023-01-27T09:18:37.683Z,102085.59
2023-01-27T09:21:05.978Z,102077.69
2023-01-27T09:23:33.958Z,102072.56
2023-01-27T09:26:00.738Z,102090.28
2023-01-27T09:28:27.575Z,102094.75
2023-01-27T09:30:58.539Z,102090.38
2023-01-27T09:33:26.225Z,102092.09
2023-01-27T09:36:10.453Z,102086.91
2023-01-27T09:38:48.505Z,102096.66
2023-01-27T09:41:55.441Z,102099.28
2023-01-27T09:45:13.181Z,102088.72
2023-01-27T09:48:17.007Z,102095.75
2023-01-27T09:51:21.937Z,102088.72
2023-01-27T09:54:27.243Z,102081.69
2023-01-27T09:57:18.250Z,102101.00
2023-01-27T10:00:38.129Z,102092.19
2023-01-27T10:03:30.005Z,102104.50
2023-01-27T10:06:26.799Z,102097.53
2023-01-27T10:09:38.396Z,102095.88
2023-01-27T10:12:43.901Z,102097.63
2023-01-27T10:15:56.701Z,102099.34
2023-01-27T10:18:54.638Z,102106.41
2023-01-27T10:21:59.736Z,102089.75
2023-01-27T10:25:03.587Z,102084.47
2023-01-27T10:27:37.052Z,102083.72
2023-01-27T10:30:21.594Z,102087.25
2023-01-27T10:32:57.182Z,102094.06
2023-01-27T10:35:53.667Z,102087.13
2023-01-27T10:39:02.080Z,102102.06
2023-01-27T10:42:07.131Z,102101.25
2023-01-27T10:45:11.591Z,102098.63
2023-01-27T10:47:56.360Z,102106.41
2023-01-27T10:51:05.134Z,102116.03
2023-01-27T10:54:08.749Z,102117.88
2023-01-27T10:56:49.702Z,102118.72
2023-01-27T10:59:26.805Z,102109.09
2023-01-27T11:02:06.490Z,102106.59
2023-01-27T11:04:48.174Z,102120.66
2023-01-27T11:07:21.678Z,102110.13
2023-01-27T11:10:11.043Z,102115.38
2023-01-27T11:12:45.049Z,102105.72
2023-01-27T11:15:29.734Z,102103.97
2023-01-27T11:18:20.104Z,102111.00
2023-01-27T11:20:54.601Z,102111.88
2023-01-27T11:23:40.251Z,102104.97
2023-01-27T11:26:16.689Z,102108.53
2023-01-27T11:29:10.203Z,102105.97
2023-01-27T11:31:59.870Z,102105.06
2023-01-27T11:35:09.213Z,102110.22
2023-01-27T11:37:42.593Z,102111.94
2023-01-27T11:40:28.783Z,102097.88
2023-01-27T11:42:58.516Z,102104.84
2023-01-27T11:45:27.079Z,102106.75
2023-01-27T11:48:02.283Z,102100.69
2023-01-27T11:50:33.895Z,102099.94
2023-01-27T11:53:26.575Z,102102.66
2023-01-27T11:56:02.458Z,102093.97
2023-01-27T11:59:00.113Z,102100.25
2023-01-27T12:01:48.108Z,102099.44
2023-01-27T12:04:31.762Z,102101.22
2023-01-27T12:07:14.772Z,102094.28
2023-01-27T12:09:42.534Z,102092.59
2023-01-27T12:12:15.464Z,102084.78
2023-01-27T12:14:54.245Z,102093.59
2023-01-27T12:17:35.166Z,102091.84
2023-01-27T12:20:31.760Z,102086.47
2023-01-27T12:23:15.107Z,102084.59
2023-01-27T12:25:50.245Z,102080.97
2023-01-27T12:28:25.378Z,102083.53
2023-01-27T12:30:55.225Z,102080.78
2023-01-27T12:33:29.690Z,102085.16
2023-01-27T12:36:01.724Z,102076.38
2023-01-27T12:38:36.287Z,102079.09
2023-01-27T12:41:06.776Z,102087.06
2023-01-27T12:43:52.019Z,102076.44
2023-01-27T12:46:28.238Z,102081.66
2023-01-27T12:49:13.142Z,102071.97
2023-01-27T12:51:51.532Z,102069.38
2023-01-27T12:54:25.787Z,102069.44
2023-01-27T12:56:53.610Z,102072.00
2023-01-27T12:59:25.803Z,102068.47
2023-01-27T13:02:23.649Z,102070.25
2023-01-27T13:04:59.152Z,102077.28
2023-01-27T13:07:32.161Z,102079.88
2023-01-27T13:10:06.911Z,102074.63
2023-01-27T13:12:56.300Z,102086.06
2023-01-27T13:15:31.525Z,102077.16
2023-01-27T13:18:00.381Z,102091.16
2023-01-27T13:20:41.130Z,102085.88
2023-01-27T13:23:19.060Z,102084.22
2023-01-27T13:26:04.538Z,102080.78
2023-01-27T13:28:52.670Z,102079.03
2023-01-27T13:31:42.858Z,102079.88
2023-01-27T13:34:50.488Z,102089.38
2023-01-27T13:37:35.843Z,102081.34
2023-01-27T13:40:30.785Z,102077.88
2023-01-27T13:43:23.790Z,102080.53
2023-01-27T13:46:30.481Z,102083.97
2023-01-27T13:49:05.004Z,102088.34
2023-01-27T13:51:33.632Z,102092.72
2023-01-27T13:54:04.039Z,102088.31
2023-01-27T13:57:08.363Z,102094.41
2023-01-27T14:00:09.431Z,102096.09
2023-01-27T14:03:02.339Z,102095.97
2023-01-27T14:05:53.767Z,102105.53
2023-01-27T14:08:57.706Z,102093.19
2023-01-27T14:11:50.776Z,102102.75
2023-01-27T14:14:35.424Z,102101.06
2023-01-27T14:17:07.976Z,102101.00
2023-01-27T14:20:24.686Z,102108.06
2023-01-27T14:23:09.771Z,102114.19
2023-01-27T14:25:59.142Z,102112.41
2023-01-27T14:29:07.714Z,102106.28
2023-01-27T14:31:41.552Z,102108.06
2023-01-27T14:34:42.977Z,102118.69
2023-01-27T14:37:34.457Z,102111.69
2023-01-27T14:40:30.590Z,102116.09
2023-01-27T14:43:06.798Z,102116.94
2023-01-27T14:45:36.458Z,102120.41
2023-01-27T14:48:25.319Z,102117.84
2023-01-27T14:51:22.081Z,102122.22
2023-01-27T14:54:33.742Z,102130.13
2023-01-27T14:57:27.667Z,102136.09
2023-01-27T15:00:34.208Z,102134.16
2023-01-27T15:03:25.564Z,102144.69
2023-01-27T15:06:26.655Z,102138.38
2023-01-27T15:09:35.119Z,102142.69
2023-01-27T15:12:48.200Z,102144.25
2023-01-27T15:15:23.468Z,102149.50
2023-01-27T15:18:21.309Z,102146.75
2023-01-27T15:21:10.505Z,102143.31
2023-01-27T15:24:25.703Z,102154.66
2023-01-27T15:26:53.965Z,102154.56
2023-01-27T15:29:26.358Z,102158.00
2023-01-27T15:32:22.798Z,102166.75
2023-01-27T15:35:29.966Z,102168.41
2023-01-27T15:38:08.292Z,102170.09
2023-01-27T15:41:15.006Z,102169.91
2023-01-27T15:44:15.731Z,102177.88
2023-01-27T15:46:48.586Z,102173.53
2023-01-27T15:49:26.181Z,102185.88
2023-01-27T15:51:56.865Z,102182.44
2023-01-27T15:54:29.533Z,102178.94
2023-01-27T15:57:00.461Z,102182.44
2023-01-27T15:59:31.579Z,102188.53
2023-01-27T16:02:14.227Z,102195.50
2023-01-27T16:04:41.039Z,102191.03
2023-01-27T16:07:24.998Z,102192.81
2023-01-27T16:09:52.682Z,102202.41
2023-01-27T16:12:31.831Z,102203.22
2023-01-27T16:15:01.590Z,102201.41
2023-01-27T16:17:34.293Z,102196.94
2023-01-27T16:20:26.717Z,102207.47
2023-01-27T16:23:02.109Z,102200.34
2023-01-27T16:25:41.728Z,102205.56
2023-01-27T16:28:29.489Z,102212.47
2023-01-27T16:31:10.681Z,102200.16
2023-01-27T16:33:41.725Z,102210.63
2023-01-27T16:36:23.293Z,102202.78
2023-01-27T16:38:51.665Z,102205.38
2023-01-27T16:41:29.823Z,102213.25
2023-01-27T16:44:16.478Z,102206.19
2023-01-27T16:46:49.829Z,102213.25
2023-01-27T16:49:26.759Z,102217.63
2023-01-27T16:52:05.493Z,102215.00
2023-01-27T16:54:38.188Z,102227.13
2023-01-27T16:57:06.953Z,102225.41
2023-01-27T16:59:37.424Z,102235.97
2023-01-27T17:02:17.741Z,102228.91
2023-01-27T17:04:51.640Z,102244.69
2023-01-27T17:07:18.665Z,102244.66
2023-01-27T17:09:58.599Z,102242.94
2023-01-27T17:12:43.035Z,102237.66
2023-01-27T17:15:18.405Z,102247.09
2023-01-27T17:17:45.595Z,102245.22
2023-01-27T17:20:32.259Z,102251.38
2023-01-27T17:23:00.642Z,102248.72
2023-01-27T17:25:34.816Z,102245.09
2023-01-27T17:28:04.107Z,102247.53
2023-01-27T17:30:39.311Z,102253.56
2023-01-27T17:33:14.893Z,102260.56
2023-01-27T17:35:41.806Z,102264.84
2023-01-27T17:38:36.877Z,102258.75
2023-01-27T17:41:03.656Z,102268.31
2023-01-27T17:43:39.345Z,102269.16
2023-01-27T17:46:16.702Z,102272.63
2023-01-27T17:49:25.421Z,102266.38
2023-01-27T17:51:57.501Z,102266.25
2023-01-27T17:54:43.380Z,102271.53
2023-01-27T17:57:32.199Z,102282.03
2023-01-27T18:00:06.913Z,102280.22
2023-01-27T18:02:54.906Z,102279.34
2023-01-27T18:05:26.188Z,102285.50
2023-01-27T18:07:53.532Z,102291.66
2023-01-27T18:10:33.627Z,102290.84
2023-01-27T18:13:17.821Z,102296.00
2023-01-27T18:16:19.230Z,102295.91
2023-01-27T18:18:47.682Z,102301.06
2023-01-27T18:21:21.973Z,102298.41
2023-01-27T18:23:59.749Z,102297.53
2023-01-27T18:26:39.723Z,102294.91
2023-01-27T18:29:22.765Z,102295.91
2023-01-27T18:31:55.331Z,102297.53
2023-01-27T18:34:27.418Z,102296.72
2023-01-27T18:37:23.978Z,102311.66
2023-01-27T18:39:50.774Z,102304.47
2023-01-27T18:42:20.041Z,102304.47
2023-01-27T18:44:50.763Z,102304.47
2023-01-27T18:47:17.398Z,102306.22
2023-01-27T18:50:23.665Z,102313.19
2023-01-27T18:52:52.004Z,102315.81
2023-01-27T18:55:30.164Z,102307.19
2023-01-27T18:57:59.757Z,102312.44
2023-01-27T19:00:38.077Z,102321.28
2023-01-27T19:03:12.199Z,102308.91
2023-01-27T19:05:39.101Z,102309.75
2023-01-27T19:08:06.296Z,102311.38
2023-01-27T19:10:35.152Z,102307.03
2023-01-27T19:13:04.101Z,102299.22
2023-01-27T19:15:37.644Z,102306.22
2023-01-27T19:18:15.815Z,102312.28
2023-01-27T19:20:43.102Z,102313.13
2023-01-27T19:23:14.900Z,102307.81
2023-01-27T19:25:42.855Z,102302.41
2023-01-27T19:28:35.278Z,102298.81
2023-01-27T19:31:02.948Z,102296.09
2023-01-27T19:33:33.566Z,102314.50
2023-01-27T19:36:42.996Z,102314.50
2023-01-27T19:39:22.056Z,102326.75
2023-01-27T19:41:49.003Z,102317.03
2023-01-27T19:44:16.608Z,102317.91
2023-01-27T19:46:43.498Z,102319.72
2023-01-27T19:49:19.567Z,102316.25
2023-01-27T19:51:46.446Z,102321.44
2023-01-27T19:54:13.303Z,102319.78
2023-01-27T19:56:40.093Z,102317.91
2023-01-27T19:59:08.132Z,102325.00
2023-01-27T20:01:35.295Z,102326.72
2023-01-27T20:04:02.148Z,102331.13
2023-01-27T20:06:30.980Z,102336.31
2023-01-27T20:08:59.734Z,102329.34
2023-01-27T20:11:43.569Z,102329.25
2023-01-27T20:14:19.438Z,102337.16
2023-01-27T20:16:47.275Z,102325.59
2023-01-27T20:19:16.620Z,102332.59
2023-01-27T20:21:44.831Z,102329.97
2023-01-27T20:24:19.406Z,102324.69
2023-01-27T20:26:46.838Z,102333.41
2023-01-27T20:29:14.010Z,102333.41
2023-01-27T20:31:41.231Z,102331.59
2023-01-27T20:34:08.177Z,102338.59
2023-01-27T20:36:34.939Z,102339.44
2023-01-27T20:39:01.819Z,102344.63
2023-01-27T20:41:28.650Z,102342.81
2023-01-27T20:43:58.538Z,102340.19
2023-01-27T20:46:25.362Z,102344.50
2023-01-27T20:48:52.265Z,102333.00
2023-01-27T20:51:19.657Z,102345.22
2023-01-27T20:53:46.898Z,102349.59
2023-01-27T20:56:16.548Z,102343.28
2023-01-27T20:58:43.611Z,102343.25
2023-01-27T21:01:19.766Z,102353.81
2023-01-27T21:03:47.650Z,102352.00
2023-01-27T21:06:15.835Z,102344.88
2023-01-27T21:08:43.511Z,102337.81
2023-01-27T21:11:12.796Z,102340.47
2023-01-27T21:13:39.654Z,102336.19
2023-01-27T21:16:07.452Z,102339.63
2023-01-27T21:18:36.268Z,102339.56
2023-01-27T21:21:04.288Z,102337.81
2023-01-27T21:23:34.798Z,102345.72
2023-01-27T21:26:10.383Z,102336.91
2023-01-27T21:28:37.303Z,102337.81
2023-01-27T21:31:10.668Z,102340.47
2023-01-27T21:33:39.421Z,102342.25
2023-01-27T21:36:10.587Z,102333.56
2023-01-27T21:38:38.373Z,102330.75
2023-01-27T21:41:35.671Z,102338.72
2023-01-27T21:44:22.102Z,102330.75
2023-01-27T21:46:49.278Z,102323.72
2023-01-27T21:49:16.170Z,102328.00
2023-01-27T21:51:43.217Z,102335.88
2023-01-27T21:54:10.433Z,102335.88
2023-01-27T21:56:37.231Z,102324.56
2023-01-27T21:59:04.620Z,102326.28
2023-01-27T22:01:31.802Z,102327.19
2023-01-27T22:03:58.793Z,102326.28
2023-01-27T22:06:25.647Z,102321.94
2023-01-27T22:08:52.489Z,102319.31
2023-01-27T22:11:19.697Z,102319.22
2023-01-27T22:13:46.956Z,102314.88
2023-01-27T22:16:17.522Z,102314.88
2023-01-27T22:21:54.446Z,102305.88
2023-01-27T22:24:21.340Z,102299.72
2023-01-27T22:26:48.506Z,102297.06
2023-01-27T22:29:15.381Z,102302.28
2023-01-27T22:31:42.157Z,102292.59
2023-01-27T22:34:09.704Z,102292.50
2023-01-27T22:36:37.140Z,102284.59
2023-01-27T22:39:04.523Z,102291.63
2023-01-27T22:41:31.869Z,102285.41
2023-01-27T22:43:58.635Z,102286.22
2023-01-27T22:49:35.094Z,102290.38
2023-01-27T22:52:01.863Z,102285.94
2023-01-27T22:54:28.702Z,102278.81
2023-01-27T22:57:13.705Z,102289.25
2023-01-27T22:59:40.939Z,102284.00
2023-01-27T23:02:07.860Z,102279.66
2023-01-27T23:04:35.451Z,102289.25
2023-01-27T23:07:02.319Z,102291.06
2023-01-27T23:09:29.086Z,102296.31
2023-01-27T23:11:56.408Z,102294.50
2023-01-27T23:14:23.185Z,102290.03
2023-01-27T23:16:52.785Z,102279.44
2023-01-27T23:19:19.797Z,102282.00
2023-01-27T23:21:46.808Z,102288.22
2023-01-27T23:24:14.207Z,102288.13
2023-01-27T23:26:41.076Z,102287.31
2023-01-27T23:29:22.942Z,102286.41
2023-01-27T23:31:53.409Z,102293.34
2023-01-27T23:34:20.352Z,102297.81
2023-01-27T23:36:48.384Z,102296.00
2023-01-27T23:39:16.719Z,102299.63
2023-01-27T23:41:43.507Z,102302.25
2023-01-27T23:44:13.772Z,102306.69
2023-01-27T23:46:40.912Z,102306.75
2023-01-27T23:49:10.758Z,102309.38
2023-01-27T23:51:37.863Z,102307.63
2023-01-27T23:54:04.774Z,102303.38
2023-01-27T23:56:31.513Z,102303.47
2023-01-27T23:58:58.304Z,102305.19
